createdAt,value
2018-09-05T00:00:15.023Z,27.90
2018-09-05T00:02:44.325Z,27.30
2018-09-05T00:05:13.572Z,26.07
2018-09-05T00:07:42.867Z,25.50
2018-09-05T00:10:12.173Z,27.20
2018-09-05T00:12:41.371Z,26.80
2018-09-05T00:15:10.579Z,26.63
2018-09-05T00:17:39.735Z,28.17
2018-09-05T00:20:09.098Z,27.00
2018-09-05T00:22:38.412Z,28.50
2018-09-05T00:25:07.885Z,27.17
2018-09-05T00:27:37.184Z,26.70
2018-09-05T00:30:06.632Z,26.10
2018-09-05T00:32:36.176Z,26.37
2018-09-05T00:35:05.844Z,25.63
2018-09-05T00:37:35.089Z,25.63
2018-09-05T00:40:04.302Z,25.30
2018-09-05T00:42:33.435Z,27.23
2018-09-05T00:45:02.786Z,26.67
2018-09-05T00:47:31.906Z,25.83
2018-09-05T00:50:01.409Z,26.97
2018-09-05T00:52:31.012Z,26.47
2018-09-05T00:55:00.332Z,27.43
2018-09-05T00:57:29.825Z,25.27
2018-09-05T00:59:59.034Z,24.00
2018-09-05T01:02:28.209Z,23.63
2018-09-05T01:04:57.503Z,23.60
2018-09-05T01:07:27.965Z,22.53
2018-09-05T01:09:57.331Z,22.53
2018-09-05T01:12:26.867Z,21.83
2018-09-05T01:14:56.397Z,20.73
2018-09-05T01:17:25.527Z,20.73
2018-09-05T01:19:54.680Z,19.27
2018-09-05T01:22:23.970Z,19.60
2018-09-05T01:24:53.144Z,18.13
2018-09-05T01:27:22.405Z,18.37
2018-09-05T01:29:51.665Z,18.53
2018-09-05T01:32:20.932Z,17.80
2018-09-05T01:34:50.148Z,17.73
2018-09-05T01:37:19.344Z,17.53
2018-09-05T01:39:48.552Z,17.33
2018-09-05T01:42:17.721Z,17.47
2018-09-05T01:44:46.952Z,17.97
2018-09-05T01:47:16.205Z,17.53
2018-09-05T01:49:45.500Z,16.63
2018-09-05T01:52:14.713Z,16.83
2018-09-05T01:54:43.894Z,16.33
2018-09-05T01:57:13.121Z,17.13
2018-09-05T01:59:42.288Z,16.80
2018-09-05T02:02:11.555Z,17.67
2018-09-05T02:04:40.653Z,16.90
2018-09-05T02:07:09.949Z,17.63
2018-09-05T02:09:39.248Z,17.83
2018-09-05T02:12:08.423Z,17.53
2018-09-05T02:14:37.664Z,16.83
2018-09-05T02:17:06.932Z,16.97
2018-09-05T02:19:42.749Z,16.97
2018-09-05T02:22:12.098Z,16.20
2018-09-05T02:24:41.285Z,15.17
2018-09-05T02:27:10.465Z,15.33
2018-09-05T02:29:39.683Z,15.07
2018-09-05T02:32:09.002Z,15.63
2018-09-05T02:34:38.283Z,16.30
2018-09-05T02:37:07.676Z,15.23
2018-09-05T02:39:36.976Z,16.27
2018-09-05T02:42:06.213Z,15.50
2018-09-05T02:44:35.685Z,15.90
2018-09-05T02:47:04.993Z,15.63
2018-09-05T02:49:34.185Z,14.90
2018-09-05T02:52:03.485Z,14.77
2018-09-05T02:54:32.700Z,16.27
2018-09-05T02:57:01.868Z,15.40
2018-09-05T02:59:31.128Z,16.47
2018-09-05T03:02:00.398Z,15.07
2018-09-05T03:04:29.537Z,14.53
2018-09-05T03:06:58.764Z,14.83
2018-09-05T03:09:28.039Z,14.13
2018-09-05T03:11:57.279Z,14.97
2018-09-05T03:14:26.460Z,15.43
2018-09-05T03:16:55.896Z,15.50
2018-09-05T03:19:25.302Z,15.73
2018-09-05T03:21:54.484Z,16.13
2018-09-05T03:24:23.680Z,15.30
2018-09-05T03:26:52.960Z,15.30
2018-09-05T03:29:22.250Z,15.53
2018-09-05T03:31:51.583Z,16.77
2018-09-05T03:34:20.813Z,15.63
2018-09-05T03:36:50.077Z,16.10
2018-09-05T03:39:19.283Z,16.53
2018-09-05T03:41:48.549Z,16.03
2018-09-05T03:44:17.780Z,16.17
2018-09-05T03:46:47.006Z,16.30
2018-09-05T03:49:16.172Z,15.50
2018-09-05T03:51:45.464Z,16.70
2018-09-05T03:54:14.728Z,17.10
2018-09-05T03:56:44.461Z,16.77
2018-09-05T03:59:13.690Z,17.00
2018-09-05T04:01:43.593Z,17.73
2018-09-05T04:04:12.854Z,17.57
2018-09-05T04:06:42.122Z,17.47
2018-09-05T04:09:11.306Z,17.93
2018-09-05T04:11:40.495Z,17.17
2018-09-05T04:14:09.696Z,17.20
2018-09-05T04:16:38.903Z,17.63
2018-09-05T04:19:08.028Z,16.93
2018-09-05T04:21:37.390Z,17.10
2018-09-05T04:24:06.691Z,17.23
2018-09-05T04:26:35.792Z,18.20
2018-09-05T04:29:05.093Z,17.57
2018-09-05T04:31:34.251Z,17.90
2018-09-05T04:34:03.484Z,17.33
2018-09-05T04:36:32.888Z,17.47
2018-09-05T04:39:02.328Z,18.83
2018-09-05T04:41:31.509Z,18.27
2018-09-05T04:44:00.707Z,17.60
2018-09-05T04:46:30.468Z,18.23
2018-09-05T04:49:00.250Z,18.10
2018-09-05T04:51:29.529Z,20.73
2018-09-05T04:53:59.535Z,19.63
2018-09-05T04:56:28.660Z,20.33
2018-09-05T04:58:57.880Z,21.17
2018-09-05T05:01:27.283Z,20.23
2018-09-05T05:03:56.484Z,21.33
2018-09-05T05:06:25.669Z,21.10
2018-09-05T05:08:55.004Z,20.20
2018-09-05T05:11:24.241Z,20.57
2018-09-05T05:13:53.394Z,20.90
2018-09-05T05:16:22.549Z,21.87
2018-09-05T05:18:51.992Z,22.17
2018-09-05T05:21:21.401Z,22.70
2018-09-05T05:23:50.740Z,21.33
2018-09-05T05:26:20.697Z,21.20
2018-09-05T05:28:50.856Z,21.43
2018-09-05T05:31:20.077Z,22.63
2018-09-05T05:33:49.471Z,20.87
2018-09-05T05:36:19.737Z,20.73
2018-09-05T05:38:48.853Z,22.20
2018-09-05T05:41:18.060Z,21.07
2018-09-05T05:43:47.645Z,22.17
2018-09-05T05:46:16.908Z,23.20
2018-09-05T05:48:46.212Z,22.47
2018-09-05T05:51:15.585Z,22.70
2018-09-05T05:53:44.732Z,23.47
2018-09-05T05:56:13.985Z,22.17
2018-09-05T05:58:43.275Z,21.17
2018-09-05T06:01:12.559Z,19.70
2018-09-05T06:03:41.684Z,19.33
2018-09-05T06:06:10.963Z,19.23
2018-09-05T06:08:40.119Z,19.53
2018-09-05T06:11:09.423Z,18.30
2018-09-05T06:13:38.595Z,19.00
2018-09-05T06:16:07.892Z,18.90
2018-09-05T06:18:37.209Z,18.57
2018-09-05T06:21:06.662Z,18.70
2018-09-05T06:23:35.800Z,18.67
2018-09-05T06:26:05.319Z,18.03
2018-09-05T06:28:34.815Z,17.60
2018-09-05T06:31:04.156Z,17.77
2018-09-05T06:33:33.438Z,18.07
2018-09-05T06:36:02.896Z,17.80
2018-09-05T06:38:32.287Z,19.33
2018-09-05T06:41:02.148Z,18.37
2018-09-05T06:43:31.395Z,17.97
2018-09-05T06:46:00.882Z,17.37
2018-09-05T06:48:30.015Z,16.87
2018-09-05T06:51:03.088Z,17.97
2018-09-05T06:53:32.250Z,18.13
2018-09-05T06:56:02.155Z,15.30
2018-09-05T06:58:31.469Z,16.60
2018-09-05T07:01:00.865Z,16.37
2018-09-05T07:03:30.135Z,17.30
2018-09-05T07:05:59.568Z,16.13
2018-09-05T07:08:28.952Z,16.27
2018-09-05T07:10:58.141Z,15.67
2018-09-05T07:13:27.448Z,15.40
2018-09-05T07:15:56.619Z,15.57
2018-09-05T07:18:26.191Z,15.50
2018-09-05T07:21:05.686Z,16.50
2018-09-05T07:23:24.541Z,15.30
2018-09-05T07:25:53.787Z,15.37
2018-09-05T07:28:23.051Z,15.23
2018-09-05T07:30:52.299Z,14.90
2018-09-05T07:33:21.567Z,14.90
2018-09-05T07:35:50.764Z,14.77
2018-09-05T07:38:19.993Z,15.00
2018-09-05T07:40:49.227Z,14.20
2018-09-05T07:43:18.480Z,14.20
2018-09-05T07:45:47.797Z,13.87
2018-09-05T07:48:16.948Z,13.87
2018-09-05T07:50:46.161Z,13.60
2018-09-05T07:53:15.394Z,14.40
2018-09-05T07:55:44.684Z,13.57
2018-09-05T07:58:13.852Z,14.50
2018-09-05T08:00:43.049Z,14.53
2018-09-05T08:03:12.222Z,14.57
2018-09-05T08:05:41.461Z,13.30
2018-09-05T08:08:10.606Z,13.67
2018-09-05T08:10:39.929Z,12.47
2018-09-05T08:13:09.049Z,12.10
2018-09-05T08:15:38.341Z,12.63
2018-09-05T08:18:07.538Z,12.27
2018-09-05T08:20:36.732Z,12.83
2018-09-05T08:23:06.232Z,12.10
2018-09-05T08:25:37.164Z,12.47
2018-09-05T08:28:06.372Z,12.20
2018-09-05T08:30:35.618Z,12.23
2018-09-05T08:33:04.806Z,11.80
2018-09-05T08:35:34.197Z,12.57
2018-09-05T08:38:03.266Z,12.03
2018-09-05T08:40:32.390Z,11.90
2018-09-05T08:43:02.227Z,12.37
2018-09-05T08:45:32.227Z,12.43
2018-09-05T08:48:01.348Z,11.97
2018-09-05T08:50:30.478Z,12.17
2018-09-05T08:52:59.700Z,12.27
2018-09-05T08:55:29.146Z,10.40
2018-09-05T08:57:58.314Z,11.50
2018-09-05T09:00:27.469Z,11.20
2018-09-05T09:02:56.696Z,12.23
2018-09-05T09:05:26.619Z,11.57
2018-09-05T09:07:55.784Z,9.73
2018-09-05T09:10:25.705Z,10.45
2018-09-05T09:12:55.081Z,10.75
2018-09-05T09:15:24.339Z,11.35
2018-09-05T09:17:53.750Z,10.30
2018-09-05T09:20:22.940Z,10.40
2018-09-05T09:22:52.128Z,9.38
2018-09-05T09:25:21.339Z,10.03
2018-09-05T09:27:50.614Z,9.48
2018-09-05T09:30:19.917Z,11.00
2018-09-05T09:32:49.132Z,9.25
2018-09-05T09:35:18.364Z,9.77
2018-09-05T09:37:47.462Z,9.20
2018-09-05T09:40:16.666Z,9.67
2018-09-05T09:42:45.998Z,10.37
2018-09-05T09:45:15.167Z,9.20
2018-09-05T09:47:44.367Z,10.17
2018-09-05T09:50:13.716Z,9.60
2018-09-05T09:52:42.883Z,9.23
2018-09-05T09:55:12.068Z,9.50
2018-09-05T09:57:41.897Z,9.10
2018-09-05T10:00:11.847Z,9.07
2018-09-05T10:02:46.436Z,8.77
2018-09-05T10:05:20.973Z,8.97
2018-09-05T10:07:55.818Z,9.08
2018-09-05T10:10:30.540Z,9.08
2018-09-05T10:13:05.045Z,8.25
2018-09-05T10:15:39.564Z,8.70
2018-09-05T10:18:14.193Z,8.18
2018-09-05T10:20:43.435Z,7.08
2018-09-05T10:23:12.632Z,7.37
2018-09-05T10:25:41.835Z,8.00
2018-09-05T10:28:10.938Z,7.22
2018-09-05T10:30:40.224Z,6.55
2018-09-05T10:33:09.418Z,6.05
2018-09-05T10:35:38.725Z,5.90
2018-09-05T10:38:08.039Z,5.37
2018-09-05T10:40:37.616Z,4.80
2018-09-05T10:43:06.848Z,5.83
2018-09-05T10:45:36.109Z,5.62
2018-09-05T10:48:05.387Z,4.97
2018-09-05T10:50:34.650Z,3.90
2018-09-05T10:53:04.140Z,3.90
2018-09-05T10:55:33.420Z,4.30
2018-09-05T10:58:02.655Z,3.92
2018-09-05T11:00:31.887Z,4.25
2018-09-05T11:03:01.135Z,4.35
2018-09-05T11:05:30.274Z,4.20
2018-09-05T11:07:59.544Z,3.70
2018-09-05T11:10:28.827Z,4.33
2018-09-05T11:12:58.046Z,4.17
2018-09-05T11:15:27.216Z,3.83
2018-09-05T11:17:56.493Z,3.43
2018-09-05T11:20:25.792Z,3.93
2018-09-05T11:22:55.004Z,3.90
2018-09-05T11:25:24.098Z,3.50
2018-09-05T11:27:53.409Z,3.17
2018-09-05T11:30:22.550Z,3.30
2018-09-05T11:32:51.674Z,3.33
2018-09-05T11:35:20.921Z,3.87
2018-09-05T11:37:50.054Z,3.77
2018-09-05T11:40:19.983Z,3.47
2018-09-05T11:42:49.356Z,3.50
2018-09-05T11:45:18.692Z,3.20
2018-09-05T11:47:48.068Z,3.80
2018-09-05T11:50:17.184Z,4.00
2018-09-05T11:52:46.307Z,3.57
2018-09-05T11:55:15.511Z,4.20
2018-09-05T11:57:44.791Z,4.13
2018-09-05T12:00:14.586Z,4.23
2018-09-05T12:02:44.257Z,4.57
2018-09-05T12:05:14.094Z,4.17
2018-09-05T12:07:43.364Z,4.50
2018-09-05T12:10:12.458Z,3.60
2018-09-05T12:12:41.717Z,4.27
2018-09-05T12:15:10.847Z,3.37
2018-09-05T12:17:40.107Z,3.40
2018-09-05T12:20:09.572Z,3.50
2018-09-05T12:23:08.577Z,3.60
2018-09-05T12:25:38.048Z,3.25
2018-09-05T12:28:07.268Z,3.33
2018-09-05T12:30:36.388Z,3.80
2018-09-05T12:33:05.646Z,3.60
2018-09-05T12:35:34.897Z,3.70
2018-09-05T12:38:04.061Z,3.45
2018-09-05T12:40:33.198Z,3.90
2018-09-05T12:43:02.380Z,3.52
2018-09-05T12:45:31.495Z,3.70
2018-09-05T12:48:00.665Z,3.67
2018-09-05T12:50:29.972Z,3.60
2018-09-05T12:52:59.179Z,3.95
2018-09-05T12:55:28.375Z,3.80
2018-09-05T12:57:57.546Z,3.80
2018-09-05T13:00:26.976Z,4.25
2018-09-05T13:02:56.303Z,3.87
2018-09-05T13:05:25.502Z,3.52
2018-09-05T13:07:54.670Z,4.05
2018-09-05T13:10:23.878Z,3.80
2018-09-05T13:12:53.282Z,4.35
2018-09-05T13:15:22.590Z,3.77
2018-09-05T13:17:51.784Z,3.90
2018-09-05T13:20:20.968Z,4.40
2018-09-05T13:22:50.423Z,4.33
2018-09-05T13:25:20.201Z,4.17
2018-09-05T13:27:50.412Z,4.75
2018-09-05T13:30:19.700Z,4.15
2018-09-05T13:32:49.160Z,4.40
2018-09-05T13:35:18.326Z,4.35
2018-09-05T13:37:49.105Z,4.72
2018-09-05T13:40:18.358Z,5.35
2018-09-05T13:42:47.600Z,4.42
2018-09-05T13:45:16.761Z,4.47
2018-09-05T13:47:45.988Z,5.40
2018-09-05T13:50:15.235Z,5.42
2018-09-05T13:52:44.420Z,5.85
2018-09-05T13:55:13.537Z,6.65
2018-09-05T13:57:42.756Z,6.83
2018-09-05T14:00:15.323Z,6.78
2018-09-05T14:02:46.563Z,6.60
2018-09-05T14:05:16.796Z,6.12
2018-09-05T14:07:46.026Z,6.22
2018-09-05T14:10:16.307Z,6.22
2018-09-05T14:12:46.391Z,6.53
2018-09-05T14:15:15.737Z,6.47
2018-09-05T14:17:45.031Z,6.70
2018-09-05T14:20:14.240Z,6.20
2018-09-05T14:22:43.434Z,6.10
2018-09-05T14:25:12.611Z,6.37
2018-09-05T14:27:41.873Z,6.03
2018-09-05T14:30:11.124Z,6.27
2018-09-05T14:32:40.582Z,6.55
2018-09-05T14:35:10.901Z,6.87
2018-09-05T14:37:40.066Z,6.35
2018-09-05T14:40:12.232Z,5.47
2018-09-05T14:42:41.414Z,5.95
2018-09-05T14:45:10.596Z,6.10
2018-09-05T14:47:39.872Z,6.60
2018-09-05T14:50:09.111Z,5.70
2018-09-05T14:52:38.450Z,7.22
2018-09-05T14:55:07.621Z,5.20
2018-09-05T14:57:36.821Z,5.40
2018-09-05T15:00:06.497Z,5.70
2018-09-05T15:02:35.638Z,4.70
2018-09-05T15:05:04.850Z,4.83
2018-09-05T15:07:33.964Z,5.37
2018-09-05T15:10:03.151Z,5.93
2018-09-05T15:12:32.322Z,7.10
2018-09-05T15:15:01.564Z,10.33
2018-09-05T15:17:31.615Z,8.20
2018-09-05T15:20:00.836Z,7.87
2018-09-05T15:22:30.042Z,7.07
2018-09-05T15:25:00.993Z,7.03
2018-09-05T15:27:30.377Z,6.93
2018-09-05T15:29:59.581Z,7.63
2018-09-05T15:32:28.782Z,8.03
2018-09-05T15:34:57.966Z,8.33
2018-09-05T15:37:27.186Z,7.90
2018-09-05T15:39:56.544Z,8.43
2018-09-05T15:42:25.679Z,7.03
2018-09-05T15:44:54.843Z,7.13
2018-09-05T15:47:24.212Z,7.37
2018-09-05T15:49:53.381Z,7.80
2018-09-05T15:52:22.669Z,7.03
2018-09-05T15:54:51.980Z,7.70
2018-09-05T15:57:21.755Z,7.30
2018-09-05T15:59:51.772Z,7.23
2018-09-05T16:02:21.136Z,8.10
2018-09-05T16:04:50.357Z,7.20
2018-09-05T16:07:19.569Z,8.47
2018-09-05T16:09:48.688Z,7.93
2018-09-05T16:12:17.941Z,8.20
2018-09-05T16:14:47.551Z,8.90
2018-09-05T16:17:16.958Z,8.30
2018-09-05T16:19:46.295Z,9.03
2018-09-05T16:22:15.557Z,8.90
2018-09-05T16:24:45.008Z,9.07
2018-09-05T16:27:14.184Z,8.20
2018-09-05T16:29:43.817Z,9.70
2018-09-05T16:32:12.902Z,9.70
2018-09-05T16:34:42.205Z,9.20
2018-09-05T16:37:11.561Z,9.70
2018-09-05T16:39:40.725Z,8.87
2018-09-05T16:42:10.199Z,9.53
2018-09-05T16:44:39.406Z,9.10
2018-09-05T16:47:08.606Z,8.80
2018-09-05T16:49:39.105Z,9.70
2018-09-05T16:52:08.510Z,9.93
2018-09-05T16:54:37.741Z,10.37
2018-09-05T16:57:06.950Z,10.87
2018-09-05T16:59:36.076Z,9.80
2018-09-05T17:02:05.460Z,10.97
2018-09-05T17:04:34.545Z,11.03
2018-09-05T17:07:03.874Z,11.30
2018-09-05T17:09:33.189Z,11.13
2018-09-05T17:12:02.445Z,11.33
2018-09-05T17:14:31.744Z,9.20
2018-09-05T17:17:00.978Z,9.23
2018-09-05T17:19:30.222Z,6.67
2018-09-05T17:21:59.438Z,6.17
2018-09-05T17:24:28.628Z,5.87
2018-09-05T17:26:57.877Z,5.80
2018-09-05T17:29:27.066Z,5.83
2018-09-05T17:31:56.457Z,6.43
2018-09-05T17:34:25.791Z,6.13
2018-09-05T17:36:55.789Z,6.40
2018-09-05T17:39:24.994Z,6.87
2018-09-05T17:41:54.302Z,5.60
2018-09-05T17:44:23.468Z,6.27
2018-09-05T17:46:52.684Z,6.00
2018-09-05T17:49:21.876Z,6.50
2018-09-05T17:51:51.060Z,6.17
2018-09-05T17:54:20.312Z,6.60
2018-09-05T17:56:49.524Z,6.30
2018-09-05T17:59:18.745Z,6.60
2018-09-05T18:01:48.089Z,7.00
2018-09-05T18:04:17.241Z,6.97
2018-09-05T18:06:46.409Z,6.90
2018-09-05T18:09:15.604Z,6.70
2018-09-05T18:11:44.863Z,6.50
2018-09-05T18:14:14.894Z,6.77
2018-09-05T18:16:44.284Z,6.93
2018-09-05T18:19:13.438Z,7.60
2018-09-05T18:21:42.600Z,8.50
2018-09-05T18:24:11.899Z,9.13
2018-09-05T18:26:40.983Z,9.40
2018-09-05T18:29:10.325Z,10.20
2018-09-05T18:31:39.411Z,10.60
2018-09-05T18:34:08.569Z,11.07
2018-09-05T18:36:37.896Z,11.53
2018-09-05T18:39:08.328Z,12.30
2018-09-05T18:41:37.504Z,10.97
2018-09-05T18:44:07.545Z,12.80
2018-09-05T18:46:36.938Z,12.13
2018-09-05T18:49:06.303Z,13.10
2018-09-05T18:51:35.451Z,14.07
2018-09-05T18:54:04.753Z,13.00
2018-09-05T18:56:33.966Z,13.10
2018-09-05T18:59:04.124Z,12.33
2018-09-05T19:01:33.322Z,14.13
2018-09-05T19:04:02.520Z,12.73
2018-09-05T19:06:31.753Z,12.80
2018-09-05T19:09:00.930Z,13.27
2018-09-05T19:11:30.129Z,14.27
2018-09-05T19:13:59.406Z,13.77
2018-09-05T19:16:28.544Z,13.17
2018-09-05T19:18:57.913Z,14.30
2018-09-05T19:21:27.740Z,13.33
2018-09-05T19:23:57.128Z,14.00
2018-09-05T19:26:26.435Z,13.83
2018-09-05T19:28:55.629Z,16.17
2018-09-05T19:31:24.903Z,16.33
2018-09-05T19:33:54.164Z,16.00
2018-09-05T19:36:23.361Z,17.43
2018-09-05T19:38:52.989Z,17.63
2018-09-05T19:41:22.599Z,17.07
2018-09-05T19:43:51.942Z,18.00
2018-09-05T19:46:21.132Z,17.17
2018-09-05T19:48:50.428Z,18.67
2018-09-05T19:51:19.652Z,18.40
2018-09-05T19:53:48.892Z,17.80
2018-09-05T19:56:18.143Z,18.70
2018-09-05T19:58:47.367Z,18.00
2018-09-05T20:01:16.583Z,18.30
2018-09-05T20:03:45.900Z,18.70
2018-09-05T20:06:15.125Z,18.23
2018-09-05T20:08:44.443Z,19.80
2018-09-05T20:11:14.317Z,18.80
2018-09-05T20:13:43.518Z,18.27
2018-09-05T20:16:12.783Z,18.67
2018-09-05T20:18:42.196Z,19.17
2018-09-05T20:21:11.605Z,18.67
2018-09-05T20:23:40.742Z,18.33
2018-09-05T20:26:09.921Z,18.53
2018-09-05T20:28:39.799Z,17.60
2018-09-05T20:31:09.043Z,17.90
2018-09-05T20:33:38.358Z,18.90
2018-09-05T20:36:07.500Z,18.47
2018-09-05T20:38:36.696Z,17.30
2018-09-05T20:41:05.965Z,18.70
2018-09-05T20:43:35.765Z,17.67
2018-09-05T20:46:05.723Z,17.73
2018-09-05T20:48:34.873Z,18.30
2018-09-05T20:51:04.135Z,17.60
2018-09-05T20:53:34.113Z,18.00
2018-09-05T20:56:04.080Z,17.50
2018-09-05T20:58:33.529Z,16.30
2018-09-05T21:01:02.735Z,17.47
2018-09-05T21:03:31.973Z,18.67
2018-09-05T21:06:01.527Z,17.67
2018-09-05T21:08:30.801Z,18.23
2018-09-05T21:10:59.968Z,17.93
2018-09-05T21:13:29.167Z,18.33
2018-09-05T21:15:58.443Z,17.70
2018-09-05T21:18:27.580Z,18.40
2018-09-05T21:20:59.260Z,17.70
2018-09-05T21:23:31.424Z,18.03
2018-09-05T21:26:01.086Z,19.17
2018-09-05T21:28:31.258Z,18.90
2018-09-05T21:31:00.629Z,19.03
2018-09-05T21:33:29.794Z,18.93
2018-09-05T21:35:59.032Z,20.70
2018-09-05T21:38:28.135Z,20.93
2018-09-05T21:40:57.350Z,21.00
2018-09-05T21:43:26.673Z,20.40
2018-09-05T21:45:55.772Z,23.10
2018-09-05T21:48:25.024Z,23.47
2018-09-05T21:50:55.105Z,22.80
2018-09-05T21:53:24.303Z,23.80
2018-09-05T21:55:53.869Z,24.77
2018-09-05T21:58:23.759Z,25.43
2018-09-05T22:00:52.952Z,26.33
2018-09-05T22:03:22.139Z,27.47
2018-09-05T22:05:51.340Z,29.10
2018-09-05T22:08:20.556Z,30.23
2018-09-05T22:10:49.724Z,29.80
2018-09-05T22:13:19.169Z,32.00
2018-09-05T22:15:48.776Z,33.47
2018-09-05T22:18:18.587Z,33.50
2018-09-05T22:20:47.780Z,36.20
2018-09-05T22:23:17.141Z,36.77
2018-09-05T22:25:46.447Z,36.00
2018-09-05T22:28:15.987Z,37.17
2018-09-05T22:30:45.110Z,38.43
2018-09-05T22:33:14.224Z,39.27
2018-09-05T22:35:43.564Z,39.13
2018-09-05T22:38:13.045Z,38.10
2018-09-05T22:40:47.604Z,41.27
2018-09-05T22:43:27.912Z,40.40
2018-09-05T22:46:08.454Z,39.73
2018-09-05T22:48:49.625Z,40.93
2018-09-05T22:53:40.995Z,40.47
2018-09-05T22:56:26.885Z,41.03
2018-09-05T22:59:07.413Z,41.00
2018-09-05T23:03:55.053Z,42.50
2018-09-05T23:08:38.094Z,41.77
2018-09-05T23:11:23.320Z,42.30
2018-09-05T23:14:10.568Z,42.90
2018-09-05T23:19:27.134Z,43.63
2018-09-05T23:21:56.479Z,42.33
2018-09-05T23:24:25.581Z,45.40
2018-09-05T23:26:54.824Z,43.83
2018-09-05T23:29:24.390Z,44.90
2018-09-05T23:31:53.494Z,43.33
2018-09-05T23:34:22.827Z,41.83
2018-09-05T23:36:52.056Z,41.67
2018-09-05T23:39:21.268Z,41.43
2018-09-05T23:41:50.416Z,40.93
2018-09-05T23:44:19.584Z,39.63
2018-09-05T23:46:48.813Z,39.70
2018-09-05T23:49:18.319Z,40.93
2018-09-05T23:51:47.440Z,39.53
2018-09-05T23:54:16.689Z,39.17
2018-09-05T23:56:45.897Z,38.60
2018-09-05T23:59:15.099Z,37.67
